Time;durP1;ratioP1;P1;durP2;ratioP2;P2;SDS_P1;SDS_P2;PMS_P1;PMS_P2;Temp;Humidity;BMP_temperature;BMP_pressure;BME280_temperature;BME280_humidity;BME280_pressure;Samples;Min_cycle;Max_cycle;Signal;HPM_P1;HPM_P2
2022/11/14 00:01:57;;;;;;;28.70;24.27;;;9.50;66.60;;;;;;5009912;28;20206;-89
2022/11/14 00:04:23;;;;;;;26.00;22.13;;;9.60;70.30;;;;;;5012190;28;20232;-92
2022/11/14 00:06:52;;;;;;;32.37;23.43;;;9.60;70.80;;;;;;5010998;28;20174;-88
2022/11/14 00:09:18;;;;;;;27.47;22.80;;;9.60;71.50;;;;;;5011253;28;20154;-91
2022/11/14 00:11:44;;;;;;;25.50;22.27;;;9.50;70.80;;;;;;5011891;28;20163;-93
2022/11/14 00:14:16;;;;;;;27.77;23.40;;;9.60;72.20;;;;;;5010300;28;20179;-85
2022/11/14 00:16:45;;;;;;;33.93;24.90;;;9.70;71.50;;;;;;5040711;28;20175;-91
2022/11/14 00:19:11;;;;;;;29.33;24.50;;;9.90;62.10;;;;;;5010504;28;20172;-93
2022/11/14 00:21:39;;;;;;;28.40;23.80;;;9.90;58.20;;;;;;5011454;28;20167;-92
2022/11/14 00:24:05;;;;;;;28.43;24.70;;;9.90;57.70;;;;;;5011973;28;20179;-91
2022/11/14 00:26:31;;;;;;;30.23;24.77;;;9.90;56.40;;;;;;5015086;28;20194;-92
2022/11/14 00:28:59;;;;;;;29.57;24.60;;;9.80;58.10;;;;;;5010981;28;20163;-89
2022/11/14 00:31:24;;;;;;;28.80;23.90;;;9.70;59.50;;;;;;5014251;28;20162;-89
2022/11/14 00:33:50;;;;;;;26.60;23.47;;;9.60;62.60;;;;;;5012454;28;20168;-92
2022/11/14 00:36:16;;;;;;;29.07;24.87;;;9.60;64.60;;;;;;5006409;28;20536;-93
2022/11/14 00:38:42;;;;;;;26.43;22.93;;;9.70;64.80;;;;;;5010272;28;20647;-92
2022/11/14 00:41:08;;;;;;;30.90;23.63;;;9.50;67.40;;;;;;5010034;28;20171;-85
2022/11/14 00:43:35;;;;;;;28.43;23.37;;;9.30;71.10;;;;;;5008884;28;20261;-92
2022/11/14 00:46:00;;;;;;;25.87;22.77;;;9.20;76.10;;;;;;5009634;28;20191;-90
2022/11/14 00:48:27;;;;;;;30.23;22.87;;;9.20;80.50;;;;;;5008785;28;20222;-87
2022/11/14 00:50:54;;;;;;;25.50;22.80;;;9.10;82.20;;;;;;5051573;28;20187;-89
2022/11/14 00:53:19;;;;;;;25.83;21.10;;;9.00;83.10;;;;;;5011395;28;20183;-91
2022/11/14 00:55:45;;;;;;;30.03;23.30;;;9.10;84.30;;;;;;5004329;28;20193;-92
2022/11/14 00:58:34;;;;;;;28.27;22.07;;;9.00;84.50;;;;;;5023273;28;20163;-91
2022/11/14 01:00:59;;;;;;;26.03;21.30;;;9.10;84.70;;;;;;5010730;28;20171;-92
2022/11/14 01:03:28;;;;;;;25.83;21.67;;;8.90;84.00;;;;;;5007714;28;20191;-92
2022/11/14 01:05:54;;;;;;;26.90;20.77;;;8.90;85.30;;;;;;5008136;28;20171;-91
2022/11/14 01:08:19;;;;;;;24.30;21.57;;;9.10;82.60;;;;;;5012310;28;20206;-81
2022/11/14 01:10:49;;;;;;;25.50;22.17;;;9.10;81.70;;;;;;5016429;28;20658;-78
2022/11/14 01:13:17;;;;;;;24.13;21.13;;;9.30;80.60;;;;;;5011214;28;20198;-86
2022/11/14 01:15:59;;;;;;;26.03;21.70;;;9.20;79.70;;;;;;5013539;28;20159;-89
2022/11/14 01:18:26;;;;;;;24.87;20.80;;;9.20;78.10;;;;;;5013281;28;20179;-91
2022/11/14 01:20:54;;;;;;;26.20;21.37;;;9.00;78.60;;;;;;5001408;28;20174;-89
2022/11/14 01:23:20;;;;;;;24.87;20.63;;;8.90;80.50;;;;;;5001235;28;20651;-90
2022/11/14 01:25:45;;;;;;;24.97;21.80;;;8.90;81.20;;;;;;5000983;28;20217;-91
2022/11/14 01:28:17;;;;;;;23.17;20.37;;;8.90;83.90;;;;;;5001819;28;20175;-91
2022/11/14 01:30:43;;;;;;;24.33;19.93;;;9.00;81.80;;;;;;5001907;28;20174;-90
2022/11/14 01:33:23;;;;;;;23.60;20.57;;;9.20;77.30;;;;;;5006240;28;20167;-91
2022/11/14 01:35:49;;;;;;;22.80;20.20;;;9.30;72.30;;;;;;5017845;28;20185;-83
2022/11/14 01:38:15;;;;;;;25.47;21.03;;;9.20;70.00;;;;;;5019678;28;20155;-83
2022/11/14 01:40:43;;;;;;;24.47;21.33;;;9.20;67.40;;;;;;5019542;28;20178;-90
2022/11/14 01:43:18;;;;;;;23.90;21.17;;;9.30;67.10;;;;;;5019153;28;20203;-83
2022/11/14 01:46:09;;;;;;;21.33;18.83;;;9.00;68.60;;;;;;5017900;28;20163;-85
2022/11/14 01:49:00;;;;;;;22.87;19.97;;;8.80;76.10;;;;;;5011179;28;20186;-93
2022/11/14 01:52:10;;;;;;;22.53;20.07;;;8.70;81.30;;;;;;5006958;28;20174;-89
2022/11/14 01:54:44;;;;;;;26.73;20.90;;;8.70;82.50;;;;;;5010411;28;20195;-88
2022/11/14 01:57:14;;;;;;;24.83;20.03;;;8.90;80.60;;;;;;5010863;28;20178;-89
2022/11/14 01:59:43;;;;;;;24.80;21.03;;;9.00;79.10;;;;;;5045335;28;20263;-93
2022/11/14 02:02:25;;;;;;;24.33;20.33;;;9.00;78.40;;;;;;5016197;28;20207;-85
2022/11/14 02:05:15;;;;;;;25.53;21.03;;;9.00;76.40;;;;;;5020124;28;20179;-89
2022/11/14 02:07:41;;;;;;;23.67;21.20;;;9.10;76.50;;;;;;5045389;28;20160;-85
2022/11/14 02:10:14;;;;;;;24.40;20.70;;;9.10;72.70;;;;;;5013770;28;20290;-84
2022/11/14 02:12:40;;;;;;;25.07;20.97;;;9.10;72.20;;;;;;5014268;28;20176;-88
2022/11/14 02:15:08;;;;;;;24.90;21.80;;;9.00;74.30;;;;;;5048048;28;20202;-88
2022/11/14 02:17:34;;;;;;;24.13;20.30;;;9.00;74.80;;;;;;5013250;28;20194;-89
2022/11/14 02:20:09;;;;;;;24.33;20.53;;;8.90;75.40;;;;;;5017093;28;20182;-84
2022/11/14 02:22:34;;;;;;;24.43;20.90;;;9.00;74.80;;;;;;5018146;28;20245;-82
2022/11/14 02:25:00;;;;;;;26.47;21.53;;;9.00;74.20;;;;;;5017265;28;20170;-80
2022/11/14 02:27:26;;;;;;;24.50;20.93;;;8.90;75.50;;;;;;5016374;28;20263;-84
2022/11/14 02:29:52;;;;;;;24.00;21.40;;;8.90;74.90;;;;;;5016543;28;20155;-82
2022/11/14 02:32:18;;;;;;;24.40;20.07;;;9.00;71.70;;;;;;5015277;28;20658;-91
2022/11/14 02:34:44;;;;;;;24.27;20.50;;;8.80;72.70;;;;;;5046192;28;20261;-87
2022/11/14 02:37:10;;;;;;;24.83;20.90;;;8.60;74.40;;;;;;5013468;28;20171;-81
2022/11/14 02:39:39;;;;;;;23.07;20.37;;;8.80;75.40;;;;;;5012841;28;20174;-92
2022/11/14 02:42:25;;;;;;;22.53;19.80;;;8.80;74.70;;;;;;5002841;28;20285;-90
2022/11/14 02:45:19;;;;;;;22.70;19.90;;;8.70;74.10;;;;;;5001722;28;20286;-90
2022/11/14 02:47:48;;;;;;;21.60;18.70;;;8.70;75.20;;;;;;5004055;28;20238;-88
2022/11/14 02:50:16;;;;;;;21.90;18.90;;;8.80;74.90;;;;;;5001582;28;20258;-91
2022/11/14 02:52:42;;;;;;;22.63;19.40;;;8.70;74.00;;;;;;5012616;28;20215;-87
2022/11/14 02:55:08;;;;;;;22.17;19.63;;;8.50;75.80;;;;;;5012812;28;20183;-93
2022/11/14 02:57:34;;;;;;;26.77;19.33;;;8.30;79.40;;;;;;5013056;28;20687;-91
2022/11/14 03:00:04;;;;;;;22.83;20.43;;;8.20;82.60;;;;;;5016034;28;20170;-86
2022/11/14 03:02:29;;;;;;;25.50;19.93;;;8.30;86.00;;;;;;5005432;28;20675;-92
2022/11/14 03:04:55;;;;;;;22.17;19.73;;;8.40;85.10;;;;;;5005708;28;20186;-88
2022/11/14 03:07:22;;;;;;;25.23;19.57;;;8.40;83.00;;;;;;5001592;28;20519;-92
2022/11/14 03:09:48;;;;;;;24.03;20.33;;;8.50;82.10;;;;;;5010248;28;20164;-87
2022/11/14 03:12:19;;;;;;;23.10;20.43;;;8.50;80.00;;;;;;5018343;28;20174;-88
2022/11/14 03:14:46;;;;;;;23.20;20.63;;;8.60;79.50;;;;;;5017590;28;20171;-85
2022/11/14 03:17:12;;;;;;;21.73;19.43;;;8.60;77.60;;;;;;5032535;28;20182;-83
2022/11/14 03:19:38;;;;;;;24.70;20.47;;;8.40;77.40;;;;;;5035441;28;20167;-86
2022/11/14 03:22:04;;;;;;;24.23;21.17;;;8.40;78.10;;;;;;5022112;28;20214;-83
2022/11/14 03:24:33;;;;;;;24.97;21.43;;;8.50;73.00;;;;;;5040542;28;20170;-82
2022/11/14 03:27:22;;;;;;;27.57;21.20;;;8.50;70.40;;;;;;5042460;28;20174;-87
2022/11/14 03:29:55;;;;;;;24.47;21.33;;;8.40;68.90;;;;;;5042022;28;20163;-85
2022/11/14 03:32:35;;;;;;;25.63;21.30;;;8.40;64.50;;;;;;5042317;28;20174;-84
2022/11/14 03:38:25;;;;;;;25.70;21.27;;;7.90;73.60;;;;;;5036494;28;20157;-94
2022/11/14 03:40:52;;;;;;;25.67;20.90;;;7.90;79.40;;;;;;5035871;28;20154;-91
2022/11/14 03:43:24;;;;;;;23.93;21.27;;;7.90;81.80;;;;;;5035404;28;20190;-92
2022/11/14 03:46:02;;;;;;;24.43;21.23;;;8.10;84.00;;;;;;5034901;28;20178;-88
2022/11/14 03:48:31;;;;;;;23.33;19.57;;;8.10;83.00;;;;;;5030795;28;20158;-90
2022/11/14 03:50:57;;;;;;;22.17;19.87;;;8.00;80.30;;;;;;5032448;28;20163;-86
2022/11/14 03:53:25;;;;;;;22.43;19.73;;;8.00;80.90;;;;;;5030150;28;20224;-90
2022/11/14 03:55:55;;;;;;;23.03;20.33;;;7.80;82.80;;;;;;5027237;28;20178;-83
2022/11/14 03:58:22;;;;;;;22.30;19.53;;;7.80;85.00;;;;;;5036828;28;20189;-83
2022/11/14 04:00:47;;;;;;;28.20;20.73;;;7.80;85.40;;;;;;5027690;28;20162;-90
2022/11/14 04:03:15;;;;;;;24.67;18.87;;;7.80;87.20;;;;;;5029169;28;20228;-91
2022/11/14 04:05:46;;;;;;;23.07;19.40;;;7.70;87.10;;;;;;5029407;28;20185;-88
2022/11/14 04:08:12;;;;;;;22.07;18.93;;;7.70;86.90;;;;;;5030049;28;20246;-91
2022/11/14 04:10:38;;;;;;;20.50;18.10;;;7.70;88.20;;;;;;5029164;28;20154;-86
2022/11/14 04:13:07;;;;;;;20.40;18.30;;;7.70;87.20;;;;;;5030717;28;20169;-88
2022/11/14 04:15:34;;;;;;;19.57;17.50;;;7.80;85.60;;;;;;5034214;28;20163;-81
2022/11/14 04:18:10;;;;;;;21.37;18.30;;;7.90;80.90;;;;;;5040545;28;20218;-81
2022/11/14 04:20:37;;;;;;;21.87;17.73;;;7.90;78.30;;;;;;5071263;22;20169;-82
2022/11/14 04:23:03;;;;;;;21.30;18.47;;;8.00;74.20;;;;;;5011579;28;20278;-89
2022/11/14 04:25:30;;;;;;;21.33;18.93;;;7.80;74.30;;;;;;5013899;28;20147;-91
2022/11/14 04:28:32;;;;;;;21.70;18.87;;;7.80;75.90;;;;;;5006577;28;20558;-87
2022/11/14 04:30:59;;;;;;;21.77;18.87;;;7.80;77.50;;;;;;5005451;28;20159;-90
2022/11/14 04:33:25;;;;;;;24.87;18.73;;;7.80;77.30;;;;;;5004699;28;20167;-92
2022/11/14 04:35:52;;;;;;;20.73;18.47;;;7.90;76.60;;;;;;5005897;28;20182;-92
2022/11/14 04:38:19;;;;;;;21.17;18.37;;;7.80;77.20;;;;;;5006014;28;20167;-91
2022/11/14 04:40:51;;;;;;;22.50;18.13;;;7.70;77.30;;;;;;5007228;28;20190;-91
2022/11/14 04:43:18;;;;;;;21.43;18.80;;;7.70;79.30;;;;;;5019671;28;20221;-78
2022/11/14 04:45:44;;;;;;;20.90;18.70;;;7.80;78.70;;;;;;5020123;28;20151;-80
2022/11/14 04:48:14;;;;;;;22.20;18.83;;;7.80;77.50;;;;;;5020253;28;20298;-80
2022/11/14 04:50:45;;;;;;;22.27;18.67;;;7.80;76.90;;;;;;5020689;28;20155;-79
2022/11/14 04:53:12;;;;;;;21.47;18.73;;;7.80;76.90;;;;;;5020715;28;20218;-85
2022/11/14 04:55:42;;;;;;;21.10;18.43;;;7.90;76.00;;;;;;5020454;28;20158;-78
2022/11/14 04:58:24;;;;;;;19.93;17.73;;;7.90;74.40;;;;;;5179975;22;20236;-83
2022/11/14 05:04:35;;;;;;;19.93;17.73;;;7.90;73.70;;;;;;5040559;28;20384;-82
2022/11/14 05:07:24;;;;;;;23.03;18.77;;;7.70;74.30;;;;;;5040355;28;20167;-79
2022/11/14 05:13:45;;;;;;;23.37;18.03;;;7.90;68.70;;;;;;5039764;28;20177;-81
2022/11/14 05:16:53;;;;;;;19.67;17.60;;;7.80;65.20;;;;;;5040421;28;20159;-83
2022/11/14 05:23:01;;;;;;;22.20;19.13;;;7.40;75.10;;;;;;5039985;28;20228;-89
2022/11/14 05:25:38;;;;;;;21.97;17.80;;;7.40;77.60;;;;;;5039614;28;20166;-84
2022/11/14 05:31:44;;;;;;;19.57;16.70;;;7.40;79.00;;;;;;5040544;28;20170;-80
2022/11/14 05:44:26;;;;;;;19.03;15.63;;;7.20;80.00;;;;;;5035704;28;20181;-88
2022/11/14 05:47:01;;;;;;;19.00;15.77;;;7.20;80.90;;;;;;5038812;28;20177;-92
2022/11/14 05:49:35;;;;;;;19.00;16.73;;;7.20;81.40;;;;;;5033116;28;20255;-88
2022/11/14 05:52:22;;;;;;;19.60;16.20;;;7.40;81.00;;;;;;5032597;28;20179;-93
2022/11/14 05:55:25;;;;;;;20.10;15.33;;;7.40;78.10;;;;;;5012476;28;20186;-92
2022/11/14 05:57:51;;;;;;;20.07;15.33;;;7.50;74.70;;;;;;5014078;28;20194;-87
2022/11/14 06:00:18;;;;;;;18.63;16.10;;;7.50;67.90;;;;;;5014046;28;20183;-91
2022/11/14 06:02:46;;;;;;;20.90;16.27;;;7.40;67.00;;;;;;5014567;28;20206;-90
2022/11/14 06:05:29;;;;;;;21.67;17.03;;;7.20;68.60;;;;;;5017414;28;20174;-92
2022/11/14 06:07:58;;;;;;;18.47;15.50;;;7.30;65.50;;;;;;5007067;28;20186;-89
2022/11/14 06:10:30;;;;;;;22.57;15.80;;;7.20;66.00;;;;;;5018056;28;20155;-91
2022/11/14 06:12:56;;;;;;;18.20;15.80;;;7.10;66.50;;;;;;5017238;28;20198;-93
2022/11/14 06:15:36;;;;;;;19.70;15.60;;;6.90;68.80;;;;;;5015231;28;20160;-90
2022/11/14 06:18:09;;;;;;;20.83;15.37;;;6.80;71.50;;;;;;5015146;28;20174;-90
2022/11/14 06:21:17;;;;;;;23.70;15.67;;;6.80;75.70;;;;;;5019210;28;20148;-88
2022/11/14 06:23:45;;;;;;;22.53;16.63;;;6.90;74.60;;;;;;5012534;28;20217;-90
2022/11/14 06:26:29;;;;;;;20.30;16.53;;;7.10;72.40;;;;;;5014581;28;20497;-90
2022/11/14 06:28:58;;;;;;;21.83;15.77;;;7.00;73.90;;;;;;5010655;28;20198;-89
2022/11/14 06:31:44;;;;;;;22.13;16.17;;;7.00;76.70;;;;;;5012657;28;20188;-88
2022/11/14 06:34:29;;;;;;;22.83;16.47;;;6.90;78.50;;;;;;5014804;28;20165;-91
2022/11/14 06:37:11;;;;;;;21.87;16.20;;;7.00;78.40;;;;;;5015189;28;20178;-86
2022/11/14 06:39:46;;;;;;;23.43;15.50;;;7.20;77.80;;;;;;5015246;28;20183;-83
2022/11/14 06:42:22;;;;;;;22.57;15.17;;;7.00;77.50;;;;;;5010390;28;20241;-91
2022/11/14 06:45:15;;;;;;;20.63;15.43;;;7.10;77.80;;;;;;5017412;28;20198;-92
2022/11/14 06:47:54;;;;;;;17.67;15.50;;;7.00;76.90;;;;;;5017683;28;20171;-86
2022/11/14 06:50:40;;;;;;;20.20;14.53;;;7.00;76.70;;;;;;5019014;28;20211;-89
2022/11/14 06:53:07;;;;;;;25.87;15.87;;;7.10;77.80;;;;;;5013099;28;20206;-89
2022/11/14 06:56:02;;;;;;;26.47;16.13;;;7.20;76.80;;;;;;5015439;28;20182;-89
2022/11/14 06:58:40;;;;;;;23.27;15.43;;;7.30;74.10;;;;;;5009225;28;20202;-83
2022/11/14 07:01:14;;;;;;;19.67;14.83;;;7.20;72.00;;;;;;5008349;28;20157;-93
2022/11/14 07:03:45;;;;;;;17.60;14.93;;;7.20;73.40;;;;;;5007995;28;20209;-91
2022/11/14 07:06:27;;;;;;;22.00;15.57;;;7.20;74.30;;;;;;5014276;28;20214;-82
2022/11/14 07:09:29;;;;;;;21.67;15.90;;;7.20;72.90;;;;;;5015535;28;20167;-90
2022/11/14 07:11:58;;;;;;;19.27;15.20;;;7.30;73.90;;;;;;5011131;28;20163;-91
2022/11/14 07:14:43;;;;;;;17.73;15.50;;;7.40;72.30;;;;;;5014766;28;20151;-83
2022/11/14 07:17:11;;;;;;;20.47;15.27;;;7.50;71.10;;;;;;5003610;28;20175;-84
2022/11/14 07:19:37;;;;;;;21.17;15.40;;;7.60;68.80;;;;;;4995022;28;20641;-80
2022/11/14 07:22:03;;;;;;;20.47;14.40;;;7.50;67.80;;;;;;5003215;28;20197;-87
2022/11/14 07:24:30;;;;;;;20.67;14.73;;;7.60;64.00;;;;;;4999870;28;20197;-83
2022/11/14 07:26:58;;;;;;;21.53;15.37;;;7.60;60.90;;;;;;4998465;28;20182;-86
2022/11/14 07:29:24;;;;;;;31.70;21.40;;;7.70;61.60;;;;;;5004389;28;20594;-87
2022/11/14 07:31:56;;;;;;;23.30;14.67;;;7.60;61.20;;;;;;5006399;28;20202;-79
2022/11/14 07:34:22;;;;;;;24.70;14.97;;;7.70;56.30;;;;;;5010607;28;20217;-88
2022/11/14 07:36:49;;;;;;;19.97;14.50;;;7.70;54.80;;;;;;4997030;28;20627;-84
2022/11/14 07:39:15;;;;;;;16.03;13.90;;;7.60;54.50;;;;;;4997614;28;20544;-86
2022/11/14 07:41:41;;;;;;;17.80;15.37;;;7.40;55.30;;;;;;4998388;28;20178;-82
2022/11/14 07:44:08;;;;;;;25.33;15.43;;;7.40;58.70;;;;;;4998767;28;20182;-82
2022/11/14 07:46:33;;;;;;;23.60;15.23;;;7.30;61.00;;;;;;4999730;28;20183;-86
2022/11/14 07:48:59;;;;;;;22.13;15.40;;;7.60;59.20;;;;;;4999949;28;20187;-86
2022/11/14 07:51:25;;;;;;;21.70;15.00;;;7.40;59.40;;;;;;5007834;28;20171;-87
2022/11/14 07:54:05;;;;;;;21.03;15.17;;;7.30;63.40;;;;;;5008787;28;20206;-86
2022/11/14 07:56:49;;;;;;;22.00;14.80;;;7.20;65.90;;;;;;5016235;28;20187;-76
2022/11/14 07:59:37;;;;;;;20.80;13.87;;;7.30;68.50;;;;;;5017936;28;20182;-78
2022/11/14 08:02:09;;;;;;;28.70;14.50;;;7.40;67.80;;;;;;5018415;28;20205;-76
2022/11/14 08:04:57;;;;;;;22.17;13.40;;;7.50;67.90;;;;;;5017820;28;20190;-76
2022/11/14 08:07:49;;;;;;;18.87;12.57;;;7.50;66.50;;;;;;5021738;28;20171;-85
2022/11/14 08:10:21;;;;;;;22.43;12.10;;;7.40;65.00;;;;;;5016683;28;20217;-87
2022/11/14 08:12:49;;;;;;;17.60;12.67;;;7.60;62.40;;;;;;5016673;28;20198;-80
2022/11/14 08:15:15;;;;;;;17.17;12.10;;;7.70;59.20;;;;;;5014394;28;20187;-89
2022/11/14 08:17:40;;;;;;;20.90;12.40;;;7.70;58.70;;;;;;5012364;28;20174;-89
2022/11/14 08:20:07;;;;;;;18.50;11.37;;;7.70;57.00;;;;;;5002697;28;20186;-87
2022/11/14 08:22:33;;;;;;;20.60;12.13;;;7.70;56.40;;;;;;5000084;28;20199;-79
2022/11/14 08:24:59;;;;;;;21.03;12.83;;;7.90;57.10;;;;;;5006448;28;20217;-77
2022/11/14 08:27:25;;;;;;;20.90;13.33;;;8.00;57.00;;;;;;5010893;28;20182;-85
2022/11/14 08:29:51;;;;;;;18.83;12.57;;;8.20;53.90;;;;;;5013828;28;20190;-77
2022/11/14 08:32:18;;;;;;;18.57;12.27;;;8.20;51.70;;;;;;5007555;28;20175;-80
2022/11/14 08:34:43;;;;;;;18.87;12.53;;;8.30;48.50;;;;;;5007875;28;20175;-81
2022/11/14 08:37:10;;;;;;;21.13;14.47;;;8.30;49.40;;;;;;5000554;28;20654;-88
2022/11/14 08:39:37;;;;;;;19.03;12.80;;;8.30;48.80;;;;;;5000407;28;20218;-89
2022/11/14 08:42:03;;;;;;;20.63;12.60;;;8.20;48.60;;;;;;4998523;28;20195;-89
2022/11/14 08:44:28;;;;;;;21.37;13.83;;;8.40;49.40;;;;;;4997951;28;20248;-84
2022/11/14 08:46:54;;;;;;;18.77;12.13;;;8.60;47.30;;;;;;5000532;28;20175;-80
2022/11/14 08:49:20;;;;;;;25.50;12.80;;;8.60;45.20;;;;;;5006802;28;20253;-83
2022/11/14 08:51:45;;;;;;;16.77;12.23;;;8.60;43.40;;;;;;5007532;28;20183;-88
2022/11/14 08:54:11;;;;;;;16.97;12.20;;;8.70;44.30;;;;;;5010072;28;20230;-84
2022/11/14 08:56:38;;;;;;;19.27;13.33;;;8.70;44.30;;;;;;5012158;28;20168;-85
2022/11/14 08:59:04;;;;;;;20.77;13.03;;;8.90;41.70;;;;;;5009034;28;20246;-87
2022/11/14 09:01:31;;;;;;;18.47;12.60;;;9.00;38.00;;;;;;5003023;28;20258;-78
2022/11/14 09:03:58;;;;;;;22.90;12.63;;;8.80;36.00;;;;;;4996864;28;20340;-78
2022/11/14 09:06:24;;;;;;;16.30;11.37;;;8.80;37.50;;;;;;5000706;28;20233;-79
2022/11/14 09:08:50;;;;;;;18.90;12.87;;;8.70;38.80;;;;;;4996326;28;20709;-78
2022/11/14 09:11:15;;;;;;;17.70;13.07;;;8.80;37.70;;;;;;5009138;28;20173;-78
2022/11/14 09:13:41;;;;;;;17.57;12.23;;;8.70;37.10;;;;;;4999510;28;20654;-80
2022/11/14 09:16:07;;;;;;;20.77;13.73;;;8.70;39.00;;;;;;4999061;28;20175;-78
2022/11/14 09:18:41;;;;;;;18.77;12.10;;;8.80;39.80;;;;;;5005239;28;20244;-77
2022/11/14 09:21:09;;;;;;;17.10;12.27;;;8.70;37.60;;;;;;5009681;28;20186;-78
2022/11/14 09:23:37;;;;;;;20.30;12.63;;;9.00;37.70;;;;;;5028875;28;20198;-77
2022/11/14 09:26:08;;;;;;;23.33;11.27;;;9.20;31.50;;;;;;5034830;28;20237;-79
2022/11/14 09:28:35;;;;;;;15.90;12.13;;;9.20;29.80;;;;;;5031920;28;20276;-76
2022/11/14 09:31:03;;;;;;;22.53;13.73;;;9.20;29.70;;;;;;5028418;28;20167;-78
2022/11/14 09:33:37;;;;;;;21.07;12.77;;;9.10;31.00;;;;;;5028488;28;20205;-77
2022/11/14 09:36:14;;;;;;;23.00;13.43;;;9.20;29.60;;;;;;5025662;28;20225;-77
2022/11/14 09:38:43;;;;;;;19.53;13.40;;;9.30;27.50;;;;;;5026558;28;20222;-77
2022/11/14 09:41:21;;;;;;;24.53;13.67;;;9.30;28.60;;;;;;5003238;28;20190;-77
2022/11/14 09:44:08;;;;;;;21.97;13.87;;;9.40;30.90;;;;;;5001673;28;20198;-79
2022/11/14 09:46:41;;;;;;;19.27;12.60;;;9.40;29.00;;;;;;4998046;28;20246;-77
2022/11/14 09:49:29;;;;;;;19.50;12.73;;;9.40;30.10;;;;;;5001852;28;20163;-88
2022/11/14 09:52:16;;;;;;;19.20;12.43;;;9.40;28.90;;;;;;4999370;28;20175;-82
2022/11/14 09:54:51;;;;;;;20.73;12.50;;;9.40;29.40;;;;;;5001741;28;20178;-79
2022/11/14 09:57:19;;;;;;;16.43;12.30;;;9.50;29.30;;;;;;5001530;28;20174;-82
2022/11/14 09:59:45;;;;;;;19.37;12.90;;;9.70;25.00;;;;;;5000510;28;20190;-81
2022/11/14 10:02:40;;;;;;;17.83;12.93;;;9.80;25.50;;;;;;4999352;28;20663;-80
2022/11/14 10:05:27;;;;;;;15.93;12.00;;;9.80;26.00;;;;;;5000008;28;20167;-83
2022/11/14 10:08:37;;;;;;;20.00;13.00;;;9.80;25.80;;;;;;4999506;28;20187;-78
2022/11/14 10:11:12;;;;;;;17.20;13.60;;;9.80;25.90;;;;;;5004531;28;20265;-79
2022/11/14 10:14:05;;;;;;;17.30;13.00;;;10.00;26.50;;;;;;5021323;28;20174;-79
2022/11/14 10:16:52;;;;;;;17.17;12.43;;;10.00;23.70;;;;;;5019615;28;20162;-80
2022/11/14 10:19:28;;;;;;;18.63;12.27;;;10.30;22.90;;;;;;5020756;28;20178;-86
2022/11/14 10:21:59;;;;;;;19.60;13.20;;;10.60;20.90;;;;;;5022260;28;20162;-87
2022/11/14 10:24:49;;;;;;;21.87;13.50;;;10.70;15.20;;;;;;5021349;28;20181;-85
2022/11/14 10:27:32;;;;;;;17.07;12.90;;;10.80;11.80;;;;;;5023572;28;20186;-80
2022/11/14 10:30:03;;;;;;;19.03;12.53;;;10.90;4.90;;;;;;5025311;28;20646;-86
2022/11/14 10:32:45;;;;;;;17.70;12.40;;;10.70;2.40;;;;;;5025271;28;20179;-78
2022/11/14 10:35:27;;;;;;;18.40;12.43;;;10.60;3.50;;;;;;5021299;28;20182;-78
2022/11/14 10:37:55;;;;;;;17.93;11.50;;;10.50;2.80;;;;;;5018262;28;20170;-78
2022/11/14 10:40:28;;;;;;;16.97;11.53;;;10.40;5.60;;;;;;5016750;28;20221;-77
2022/11/14 10:43:02;;;;;;;22.90;12.87;;;10.20;9.40;;;;;;5030215;28;20186;-80
2022/11/14 10:45:40;;;;;;;15.00;12.20;;;10.30;13.40;;;;;;5033766;28;20181;-84
2022/11/14 10:48:29;;;;;;;19.37;12.13;;;10.50;8.70;;;;;;5035436;28;20166;-78
2022/11/14 10:50:57;;;;;;;18.27;12.90;;;10.50;7.20;;;;;;5034259;28;20143;-78
2022/11/14 10:53:56;;;;;;;15.73;12.43;;;10.40;5.00;;;;;;5031233;28;20202;-81
2022/11/14 10:56:23;;;;;;;16.97;13.23;;;10.30;5.30;;;;;;5023290;28;20634;-83
2022/11/14 10:58:49;;;;;;;17.07;12.87;;;10.20;7.10;;;;;;5020680;28;20194;-82
2022/11/14 11:01:41;;;;;;;14.83;13.23;;;10.20;7.80;;;;;;5020290;28;20509;-80
2022/11/14 11:04:18;;;;;;;16.13;12.20;;;10.10;8.90;;;;;;5014348;28;20658;-82
2022/11/14 11:06:44;;;;;;;17.60;14.73;;;10.00;11.00;;;;;;5014336;28;20161;-79
2022/11/14 11:12:16;;;;;;;19.20;14.27;;;10.00;12.20;;;;;;5015436;28;20177;-85
2022/11/14 11:14:45;;;;;;;16.40;13.67;;;9.80;13.50;;;;;;5006992;28;20210;-87
2022/11/14 11:17:10;;;;;;;16.17;13.37;;;9.80;14.40;;;;;;4998503;28;20175;-84
2022/11/14 11:19:39;;;;;;;18.20;13.60;;;9.70;16.20;;;;;;4999113;28;20182;-80
2022/11/14 11:22:22;;;;;;;17.13;13.97;;;9.70;17.90;;;;;;5007022;28;20170;-83
2022/11/14 11:24:48;;;;;;;17.87;14.83;;;9.60;17.80;;;;;;5011563;28;20198;-82
2022/11/14 11:27:22;;;;;;;20.37;15.17;;;9.40;20.10;;;;;;5004998;28;20174;-77
2022/11/14 11:30:26;;;;;;;21.63;14.40;;;9.20;23.20;;;;;;5007736;28;20507;-79
2022/11/14 11:33:13;;;;;;;21.70;15.83;;;9.10;26.50;;;;;;5006669;28;20197;-86
2022/11/14 11:35:40;;;;;;;17.03;14.00;;;9.10;26.90;;;;;;5022423;28;20182;-80
2022/11/14 11:38:11;;;;;;;20.33;14.90;;;9.20;25.20;;;;;;5008172;28;20163;-79
2022/11/14 11:40:40;;;;;;;19.17;14.97;;;9.20;23.90;;;;;;5009624;28;20191;-78
2022/11/14 11:43:18;;;;;;;17.93;14.63;;;9.00;25.50;;;;;;5014052;28;20210;-86
2022/11/14 11:46:11;;;;;;;21.33;16.03;;;8.70;30.30;;;;;;5007854;28;20202;-87
2022/11/14 11:48:48;;;;;;;19.50;15.73;;;8.80;33.40;;;;;;5021113;28;20164;-89
2022/11/14 11:51:22;;;;;;;21.13;15.93;;;9.00;31.30;;;;;;5030812;28;20179;-88
2022/11/14 11:54:13;;;;;;;18.83;15.60;;;9.00;29.20;;;;;;5012424;28;20245;-90
2022/11/14 11:56:42;;;;;;;19.77;16.13;;;8.70;33.60;;;;;;5000126;28;20708;-78
2022/11/14 11:59:40;;;;;;;23.83;17.23;;;8.60;38.60;;;;;;5010203;28;20266;-79
2022/11/14 12:02:23;;;;;;;22.17;16.37;;;8.60;38.70;;;;;;5009148;28;20218;-80
2022/11/14 12:04:51;;;;;;;22.17;17.47;;;8.30;43.20;;;;;;5011373;28;20171;-82
2022/11/14 12:07:55;;;;;;;23.77;19.20;;;8.20;50.90;;;;;;5007101;28;20594;-77
2022/11/14 12:10:42;;;;;;;22.03;17.67;;;8.10;55.30;;;;;;5008034;28;20171;-89
2022/11/14 12:13:45;;;;;;;24.20;18.47;;;7.90;57.60;;;;;;5003372;28;20242;-77
2022/11/14 12:16:45;;;;;;;27.30;18.80;;;7.70;64.40;;;;;;5009405;28;20171;-78
2022/11/14 12:19:34;;;;;;;24.77;18.90;;;7.70;69.40;;;;;;4964143;28;20655;-86
2022/11/14 12:22:20;;;;;;;28.13;19.40;;;7.80;73.50;;;;;;5009309;28;20202;-83
2022/11/14 12:25:14;;;;;;;26.37;20.53;;;8.00;72.50;;;;;;5009106;28;20181;-85
2022/11/14 12:28:00;;;;;;;25.37;19.70;;;8.10;69.30;;;;;;4966038;28;20183;-81
2022/11/14 12:30:28;;;;;;;24.67;19.53;;;8.10;68.60;;;;;;5003724;28;20171;-78
2022/11/14 12:33:02;;;;;;;27.70;20.43;;;8.10;69.70;;;;;;5002787;28;20171;-79
2022/11/14 12:35:36;;;;;;;25.03;20.07;;;8.20;70.60;;;;;;5009440;28;20182;-77
2022/11/14 12:38:11;;;;;;;27.57;20.23;;;8.10;69.60;;;;;;5012276;28;20194;-83
2022/11/14 12:40:40;;;;;;;28.87;21.30;;;8.10;70.40;;;;;;5005601;28;20194;-82
2022/11/14 12:43:29;;;;;;;26.07;19.87;;;8.00;73.00;;;;;;5020746;28;20230;-79
2022/11/14 12:45:56;;;;;;;30.17;21.17;;;8.00;73.40;;;;;;5008461;28;20156;-82
2022/11/14 12:48:31;;;;;;;28.00;20.83;;;7.90;76.00;;;;;;5012631;28;20266;-81
2022/11/14 12:50:59;;;;;;;31.10;21.33;;;7.70;82.20;;;;;;5015316;28;20182;-81
2022/11/14 12:53:39;;;;;;;29.73;21.37;;;7.70;85.50;;;;;;5012894;28;20198;-79
2022/11/14 12:56:29;;;;;;;27.80;21.13;;;7.60;88.90;;;;;;5008971;28;20175;-86
2022/11/14 12:59:16;;;;;;;27.90;22.27;;;7.50;91.30;;;;;;5000080;28;20182;-79
2022/11/14 13:02:20;;;;;;;26.40;21.70;;;7.50;92.60;;;;;;5002834;28;20194;-84
2022/11/14 13:05:18;;;;;;;29.97;22.23;;;7.60;92.40;;;;;;5003138;28;20218;-89
2022/11/14 13:08:35;;;;;;;30.70;23.63;;;7.40;92.20;;;;;;5021428;28;20596;-81
2022/11/14 13:23:26;;;;;;;32.47;26.00;;;7.50;97.30;;;;;;5013706;28;20281;-81
2022/11/14 13:26:14;;;;;;;32.83;25.60;;;7.40;98.00;;;;;;5013535;28;20166;-89
2022/11/14 13:28:51;;;;;;;33.83;27.20;;;7.50;98.30;;;;;;5005566;28;20218;-79
2022/11/14 13:31:24;;;;;;;38.77;29.87;;;7.60;98.20;;;;;;5005644;28;20170;-78
2022/11/14 13:34:00;;;;;;;35.27;27.23;;;7.70;98.00;;;;;;5009747;28;20215;-79
2022/11/14 13:36:49;;;;;;;35.97;28.43;;;7.90;97.50;;;;;;4993994;28;20175;-85
2022/11/14 13:39:50;;;;;;;36.70;29.10;;;8.00;96.40;;;;;;5009293;28;20242;-77
2022/11/14 13:42:50;;;;;;;35.23;28.13;;;8.20;94.90;;;;;;4993125;28;20274;-78
2022/11/14 13:45:44;;;;;;;32.30;26.97;;;8.20;93.40;;;;;;4990625;28;20226;-77
2022/11/14 13:48:50;;;;;;;34.87;28.07;;;8.20;91.90;;;;;;4989539;28;20176;-81
2022/11/14 13:51:19;;;;;;;32.33;27.47;;;8.00;91.80;;;;;;4970934;28;20183;-82
2022/11/14 13:53:46;;;;;;;33.03;28.13;;;7.90;92.50;;;;;;4985137;28;20280;-80
2022/11/14 13:56:34;;;;;;;37.00;29.33;;;7.90;93.80;;;;;;4994902;28;20234;-86